createdAt,value
2019-02-24T00:00:52.995Z,923.52
2019-02-24T00:01:52.983Z,923.54
2019-02-24T00:02:52.972Z,923.50
2019-02-24T00:03:54.686Z,923.50
2019-02-24T00:04:52.946Z,923.53
2019-02-24T00:05:52.940Z,923.52
2019-02-24T00:06:52.929Z,923.54
2019-02-24T00:07:52.917Z,923.55
2019-02-24T00:08:52.906Z,923.55
2019-02-24T00:09:52.893Z,923.52
2019-02-24T00:10:52.885Z,923.59
2019-02-24T00:11:52.882Z,923.58
2019-02-24T00:16:52.819Z,923.57
2019-02-24T00:17:52.807Z,923.52
2019-02-24T00:18:52.800Z,923.52
2019-02-24T00:19:52.789Z,923.54
2019-02-24T00:20:52.775Z,923.54
2019-02-24T00:21:52.765Z,923.55
2019-02-24T00:39:52.971Z,923.51
2019-02-24T00:48:52.472Z,923.49
2019-02-24T00:49:52.461Z,923.50
2019-02-24T00:50:52.453Z,923.54
2019-02-24T00:51:52.442Z,923.51
2019-02-24T00:52:52.434Z,923.49
2019-02-24T00:53:52.418Z,923.47
2019-02-24T00:54:52.411Z,923.46
2019-02-24T00:55:52.397Z,923.44
2019-02-24T00:56:52.390Z,923.47
2019-02-24T00:57:52.376Z,923.46
2019-02-24T00:58:52.366Z,923.44
2019-02-24T00:59:52.355Z,923.46
2019-02-24T01:00:52.346Z,923.50
2019-02-24T01:01:52.333Z,923.48
2019-02-24T01:02:52.372Z,923.47
2019-02-24T01:03:52.311Z,923.45
2019-02-24T01:04:52.301Z,923.43
2019-02-24T01:05:52.291Z,923.46
2019-02-24T01:06:52.276Z,923.49
2019-02-24T01:07:52.266Z,923.48
2019-02-24T01:08:52.257Z,923.45
2019-02-24T01:09:52.348Z,923.44
2019-02-24T01:10:52.235Z,923.48
2019-02-24T01:11:52.223Z,923.45
2019-02-24T01:12:52.214Z,923.48
2019-02-24T01:13:53.977Z,923.46
2019-02-24T01:14:52.191Z,923.50
2019-02-24T01:15:52.181Z,923.49
2019-02-24T01:16:52.179Z,923.49
2019-02-24T01:17:52.159Z,923.47
2019-02-24T01:18:52.146Z,923.49
2019-02-24T01:19:52.134Z,923.49
2019-02-24T01:20:52.126Z,923.46
2019-02-24T01:21:52.118Z,923.47
2019-02-24T01:22:52.106Z,923.45
2019-02-24T01:23:52.095Z,923.48
2019-02-24T01:24:52.085Z,923.46
2019-02-24T01:25:52.072Z,923.45
2019-02-24T01:26:52.059Z,923.46
2019-02-24T01:27:52.052Z,923.45
2019-02-24T01:28:52.041Z,923.46
2019-02-24T01:29:52.030Z,923.44
2019-02-24T01:31:52.005Z,923.43
2019-02-24T01:33:51.986Z,923.48
2019-02-24T01:34:51.980Z,923.46
2019-02-24T01:35:52.066Z,923.46
2019-02-24T01:44:51.870Z,923.41
2019-02-24T01:45:51.858Z,923.41
2019-02-24T01:47:51.837Z,923.37
2019-02-24T01:48:51.826Z,923.38
2019-02-24T01:49:51.816Z,923.36
2019-02-24T01:50:51.803Z,923.34
2019-02-24T01:51:51.793Z,923.37
2019-02-24T01:52:51.779Z,923.38
2019-02-24T01:53:51.771Z,923.35
2019-02-24T01:54:51.761Z,923.40
2019-02-24T01:55:51.751Z,923.41
2019-02-24T01:56:51.737Z,923.44
2019-02-24T01:57:51.729Z,923.42
2019-02-24T01:58:51.716Z,923.41
2019-02-24T01:59:51.707Z,923.42
2019-02-24T02:00:51.702Z,923.43
2019-02-24T02:01:51.685Z,923.46
2019-02-24T02:02:51.676Z,923.44
2019-02-24T02:03:51.667Z,923.48
2019-02-24T02:04:51.651Z,923.45
2019-02-24T02:05:51.643Z,923.47
2019-02-24T02:06:51.633Z,923.48
2019-02-24T02:07:51.618Z,923.46
2019-02-24T02:08:51.612Z,923.45
2019-02-24T02:09:51.597Z,923.45
2019-02-24T02:10:51.588Z,923.48
2019-02-24T02:11:51.580Z,923.50
2019-02-24T02:12:51.569Z,923.47
2019-02-24T02:13:51.699Z,923.49
2019-02-24T02:14:51.549Z,923.50
2019-02-24T02:15:51.535Z,923.50
2019-02-24T02:16:51.524Z,923.49
2019-02-24T02:17:51.516Z,923.49
2019-02-24T02:18:51.503Z,923.51
2019-02-24T02:19:51.494Z,923.50
2019-02-24T02:20:51.480Z,923.52
2019-02-24T02:21:51.469Z,923.53
2019-02-24T02:22:51.460Z,923.56
2019-02-24T02:23:51.446Z,923.54
2019-02-24T02:24:51.437Z,923.47
2019-02-24T02:25:51.425Z,923.55
2019-02-24T02:26:51.413Z,923.52
2019-02-24T02:27:51.405Z,923.58
2019-02-24T02:28:51.401Z,923.55
2019-02-24T02:29:51.386Z,923.54
2019-02-24T02:30:51.374Z,923.56
2019-02-24T02:31:51.365Z,923.56
2019-02-24T02:32:51.356Z,923.58
2019-02-24T02:33:51.341Z,923.53
2019-02-24T02:34:51.330Z,923.56
2019-02-24T02:35:51.422Z,923.59
2019-02-24T02:36:51.412Z,923.57
2019-02-24T02:37:51.298Z,923.55
2019-02-24T02:38:51.289Z,923.55
2019-02-24T02:39:51.276Z,923.57
2019-02-24T02:40:51.266Z,923.59
2019-02-24T02:41:51.258Z,923.57
2019-02-24T02:42:51.244Z,923.57
2019-02-24T02:43:51.234Z,923.58
2019-02-24T02:44:51.223Z,923.61
2019-02-24T02:45:51.209Z,923.62
2019-02-24T02:46:51.207Z,923.60
2019-02-24T02:47:51.206Z,923.61
2019-02-24T02:48:51.178Z,923.63
2019-02-24T02:49:51.167Z,923.63
2019-02-24T02:50:51.156Z,923.67
2019-02-24T02:51:51.148Z,923.65
2019-02-24T02:52:51.138Z,923.66
2019-02-24T02:53:51.126Z,923.67
2019-02-24T02:54:51.115Z,923.69
2019-02-24T02:55:51.101Z,923.66
2019-02-24T02:56:51.097Z,923.68
2019-02-24T02:57:51.185Z,923.70
2019-02-24T02:58:54.352Z,923.71
2019-02-24T02:59:51.162Z,923.71
2019-02-24T03:00:51.050Z,923.74
2019-02-24T03:01:51.039Z,923.76
2019-02-24T03:02:51.028Z,923.82
2019-02-24T03:03:51.017Z,923.81
2019-02-24T03:04:51.007Z,923.83
2019-02-24T03:05:50.993Z,923.80
2019-02-24T03:06:50.987Z,923.83
2019-02-24T03:07:50.973Z,923.82
2019-02-24T03:08:50.964Z,923.82
2019-02-24T03:09:50.953Z,923.86
2019-02-24T03:10:50.944Z,923.86
2019-02-24T03:11:51.031Z,923.86
2019-02-24T03:12:50.923Z,923.86
2019-02-24T03:13:50.918Z,923.88
2019-02-24T03:14:50.899Z,923.89
2019-02-24T03:15:50.888Z,923.92
2019-02-24T03:16:50.930Z,923.93
2019-02-24T03:17:50.865Z,923.92
2019-02-24T03:18:50.855Z,923.92
2019-02-24T03:19:50.845Z,923.95
2019-02-24T03:20:50.833Z,923.96
2019-02-24T03:21:50.823Z,923.96
2019-02-24T03:22:50.817Z,924.00
2019-02-24T03:23:50.805Z,923.98
2019-02-24T03:24:50.792Z,924.00
2019-02-24T03:25:50.779Z,924.00
2019-02-24T03:26:50.768Z,924.01
2019-02-24T03:27:50.760Z,924.00
2019-02-24T03:28:50.748Z,924.04
2019-02-24T03:29:50.739Z,924.09
2019-02-24T03:30:50.788Z,924.09
2019-02-24T03:31:50.719Z,924.15
2019-02-24T03:32:50.706Z,924.12
2019-02-24T03:33:50.695Z,924.10
2019-02-24T03:34:50.680Z,924.15
2019-02-24T03:35:50.672Z,924.14
2019-02-24T03:36:50.961Z,924.14
2019-02-24T03:37:50.653Z,924.17
2019-02-24T03:38:50.640Z,924.22
2019-02-24T03:39:50.632Z,924.19
2019-02-24T03:40:50.617Z,924.21
2019-02-24T03:41:50.605Z,924.22
2019-02-24T03:42:50.600Z,924.23
2019-02-24T03:43:50.582Z,924.21
2019-02-24T03:44:50.624Z,924.25
2019-02-24T03:45:50.563Z,924.25
2019-02-24T03:46:50.564Z,924.23
2019-02-24T03:47:50.545Z,924.25
2019-02-24T03:48:50.530Z,924.26
2019-02-24T03:49:50.521Z,924.20
2019-02-24T03:50:50.546Z,924.17
2019-02-24T03:51:50.498Z,924.19
2019-02-24T03:52:50.489Z,924.20
2019-02-24T03:53:50.475Z,924.21
2019-02-24T03:54:50.473Z,924.21
2019-02-24T03:55:50.460Z,924.23
2019-02-24T03:56:50.442Z,924.18
2019-02-24T03:57:50.431Z,924.18
2019-02-24T03:58:50.420Z,924.21
2019-02-24T03:59:50.423Z,924.24
2019-02-24T04:00:50.397Z,924.18
2019-02-24T04:01:50.394Z,924.21
2019-02-24T04:02:50.382Z,924.22
2019-02-24T04:03:50.369Z,924.20
2019-02-24T04:04:50.353Z,924.22
2019-02-24T04:05:50.345Z,924.18
2019-02-24T04:06:50.333Z,924.18
2019-02-24T04:07:50.323Z,924.20
2019-02-24T04:08:50.308Z,924.21
2019-02-24T04:09:50.298Z,924.23
2019-02-24T04:10:50.294Z,924.26
2019-02-24T04:11:50.275Z,924.24
2019-02-24T04:12:50.266Z,924.32
2019-02-24T04:13:50.253Z,924.28
2019-02-24T04:14:50.246Z,924.22
2019-02-24T04:15:50.233Z,924.24
2019-02-24T04:16:50.228Z,924.22
2019-02-24T04:17:50.210Z,924.28
2019-02-24T04:18:50.207Z,924.28
2019-02-24T04:19:50.189Z,924.28
2019-02-24T04:20:50.177Z,924.24
2019-02-24T04:21:50.166Z,924.30
2019-02-24T04:22:50.156Z,924.27
2019-02-24T04:23:50.145Z,924.33
2019-02-24T04:24:50.142Z,924.34
2019-02-24T04:25:50.131Z,924.31
2019-02-24T04:26:50.114Z,924.36
2019-02-24T04:27:50.109Z,924.31
2019-02-24T04:28:50.093Z,924.30
2019-02-24T04:29:50.081Z,924.33
2019-02-24T04:30:50.078Z,924.34
2019-02-24T04:31:50.160Z,924.29
2019-02-24T04:32:50.053Z,924.30
2019-02-24T04:33:50.043Z,924.31
2019-02-24T04:34:50.026Z,924.26
2019-02-24T04:35:50.027Z,924.32
2019-02-24T04:36:50.008Z,924.31
2019-02-24T04:37:50.102Z,924.33
2019-02-24T04:38:49.988Z,924.30
2019-02-24T04:39:49.979Z,924.33
2019-02-24T04:40:49.969Z,924.28
2019-02-24T04:41:49.956Z,924.32
2019-02-24T04:42:49.942Z,924.34
2019-02-24T04:43:49.933Z,924.37
2019-02-24T04:44:49.920Z,924.30
2019-02-24T04:45:49.913Z,924.28
2019-02-24T04:46:49.906Z,924.31
2019-02-24T04:47:49.890Z,924.25
2019-02-24T04:48:49.881Z,924.25
2019-02-24T04:49:49.870Z,924.27
2019-02-24T04:50:49.859Z,924.24
2019-02-24T04:51:49.851Z,924.26
2019-02-24T04:52:49.841Z,924.26
2019-02-24T04:53:49.831Z,924.27
2019-02-24T04:54:49.818Z,924.28
2019-02-24T04:55:49.808Z,924.27
2019-02-24T04:56:49.800Z,924.27
2019-02-24T04:57:49.785Z,924.26
2019-02-24T04:58:49.778Z,924.31
2019-02-24T04:59:49.763Z,924.27
2019-02-24T05:00:49.752Z,924.30
2019-02-24T05:01:49.746Z,924.31
2019-02-24T05:02:49.732Z,924.34
2019-02-24T05:03:49.721Z,924.33
2019-02-24T05:04:49.716Z,924.32
2019-02-24T05:05:49.700Z,924.29
2019-02-24T05:06:49.688Z,924.31
2019-02-24T05:07:49.693Z,924.31
2019-02-24T05:08:49.671Z,924.26
2019-02-24T05:09:49.654Z,924.30
2019-02-24T05:10:49.643Z,924.26
2019-02-24T05:11:49.634Z,924.22
2019-02-24T05:12:49.622Z,924.26
2019-02-24T05:13:49.615Z,924.31
2019-02-24T05:14:49.602Z,924.28
2019-02-24T05:15:49.596Z,924.28
2019-02-24T05:16:49.584Z,924.24
2019-02-24T05:17:49.575Z,924.26
2019-02-24T05:18:49.574Z,924.21
2019-02-24T05:19:49.558Z,924.25
2019-02-24T05:20:49.537Z,924.25
2019-02-24T05:21:49.527Z,924.25
2019-02-24T05:22:49.514Z,924.23
2019-02-24T05:23:49.506Z,924.24
2019-02-24T05:24:49.493Z,924.22
2019-02-24T05:25:49.484Z,924.25
2019-02-24T05:26:49.477Z,924.18
2019-02-24T05:27:49.472Z,924.20
2019-02-24T05:28:49.451Z,924.21
2019-02-24T05:29:49.449Z,924.18
2019-02-24T05:30:49.434Z,924.15
2019-02-24T05:31:49.417Z,924.14
2019-02-24T05:32:49.662Z,924.14
2019-02-24T05:33:49.404Z,924.14
2019-02-24T05:34:49.400Z,924.09
2019-02-24T05:35:49.375Z,924.15
2019-02-24T05:36:49.370Z,924.11
2019-02-24T05:37:49.353Z,924.15
2019-02-24T05:38:49.350Z,924.15
2019-02-24T05:39:49.334Z,924.12
2019-02-24T05:40:49.323Z,924.13
2019-02-24T05:41:49.311Z,924.14
2019-02-24T05:42:49.298Z,924.09
2019-02-24T05:43:49.293Z,924.10
2019-02-24T05:44:49.276Z,924.10
2019-02-24T05:45:49.267Z,924.11
2019-02-24T05:46:49.261Z,924.10
2019-02-24T05:47:49.253Z,924.11
2019-02-24T05:48:49.238Z,924.13
2019-02-24T05:49:49.225Z,924.11
2019-02-24T05:50:49.212Z,924.12
2019-02-24T05:51:49.207Z,924.10
2019-02-24T05:52:49.195Z,924.14
2019-02-24T05:53:49.178Z,924.11
2019-02-24T05:54:49.169Z,924.11
2019-02-24T05:55:49.158Z,924.10
2019-02-24T05:56:49.151Z,924.09
2019-02-24T05:57:49.136Z,924.12
2019-02-24T05:58:49.132Z,924.13
2019-02-24T05:59:55.367Z,924.13
2019-02-24T06:00:50.209Z,924.09
2019-02-24T06:01:49.095Z,924.07
2019-02-24T06:02:49.091Z,924.07
2019-02-24T06:03:49.072Z,924.05
2019-02-24T06:04:49.066Z,924.04
2019-02-24T06:05:49.053Z,924.04
2019-02-24T06:06:49.039Z,924.04
2019-02-24T06:07:49.028Z,924.03
2019-02-24T06:08:49.016Z,924.02
2019-02-24T06:09:49.036Z,924.05
2019-02-24T06:10:48.999Z,924.01
2019-02-24T06:11:48.986Z,924.03
2019-02-24T06:12:48.976Z,924.00
2019-02-24T06:13:48.964Z,924.04
2019-02-24T06:14:48.957Z,924.02
2019-02-24T06:15:48.950Z,923.97
2019-02-24T06:16:48.943Z,923.99
2019-02-24T06:17:48.922Z,923.99
2019-02-24T06:18:48.916Z,924.00
2019-02-24T06:19:48.902Z,924.01
2019-02-24T06:20:48.909Z,923.99
2019-02-24T06:21:48.884Z,923.95
2019-02-24T06:22:48.877Z,923.97
2019-02-24T06:23:48.858Z,924.00
2019-02-24T06:24:48.850Z,923.95
2019-02-24T06:25:48.837Z,923.96
2019-02-24T06:26:48.825Z,924.00
2019-02-24T06:27:48.812Z,923.97
2019-02-24T06:28:48.805Z,923.97
2019-02-24T06:29:48.794Z,923.94
2019-02-24T06:30:48.784Z,923.94
2019-02-24T06:31:48.797Z,923.99
2019-02-24T06:32:48.762Z,923.93
2019-02-24T06:33:49.058Z,924.01
2019-02-24T06:34:48.744Z,923.94
2019-02-24T06:35:48.730Z,923.90
2019-02-24T06:36:48.714Z,923.89
2019-02-24T06:37:48.709Z,923.94
2019-02-24T06:38:48.697Z,923.93
2019-02-24T06:39:48.685Z,923.93
2019-02-24T06:40:48.674Z,923.86
2019-02-24T06:41:48.663Z,923.89
2019-02-24T06:42:48.649Z,923.89
2019-02-24T06:43:48.644Z,923.90
2019-02-24T06:44:48.629Z,923.91
2019-02-24T06:45:48.618Z,923.93
2019-02-24T06:46:48.605Z,923.88
2019-02-24T06:47:48.598Z,923.94
2019-02-24T06:48:48.587Z,923.89
2019-02-24T06:49:48.575Z,923.93
2019-02-24T06:50:48.566Z,923.88
2019-02-24T06:51:48.551Z,923.89
2019-02-24T06:52:48.540Z,923.89
2019-02-24T06:53:48.534Z,923.88
2019-02-24T06:54:48.518Z,923.87
2019-02-24T06:55:48.507Z,923.87
2019-02-24T06:56:48.507Z,923.85
2019-02-24T06:57:48.491Z,923.85
2019-02-24T06:58:48.472Z,923.91
2019-02-24T06:59:48.465Z,923.89
2019-02-24T07:00:48.456Z,923.87
2019-02-24T07:01:48.440Z,923.90
2019-02-24T07:02:48.432Z,923.88
2019-02-24T07:03:48.418Z,923.89
2019-02-24T07:04:48.407Z,923.83
2019-02-24T07:05:48.399Z,923.84
2019-02-24T07:06:48.386Z,923.83
2019-02-24T07:07:48.376Z,923.82
2019-02-24T07:08:48.367Z,923.77
2019-02-24T07:09:48.452Z,923.83
2019-02-24T07:10:48.340Z,923.82
2019-02-24T07:11:48.342Z,923.86
2019-02-24T07:12:48.326Z,923.81
2019-02-24T07:13:48.318Z,923.81
2019-02-24T07:14:48.304Z,923.81
2019-02-24T07:15:48.287Z,923.83
2019-02-24T07:16:48.277Z,923.78
2019-02-24T07:17:48.264Z,923.79
2019-02-24T07:18:48.253Z,923.81
2019-02-24T07:19:48.240Z,923.78
2019-02-24T07:20:48.230Z,923.80
2019-02-24T07:21:48.224Z,923.78
2019-02-24T07:22:48.212Z,923.73
2019-02-24T07:23:48.201Z,923.73
2019-02-24T07:24:48.187Z,923.74
2019-02-24T07:25:48.176Z,923.74
2019-02-24T07:26:48.165Z,923.70
2019-02-24T07:27:48.151Z,923.69
2019-02-24T07:28:48.152Z,923.71
2019-02-24T07:29:48.132Z,923.66
2019-02-24T07:30:48.120Z,923.69
2019-02-24T07:31:48.110Z,923.64
2019-02-24T07:32:48.199Z,923.69
2019-02-24T07:33:48.094Z,923.66
2019-02-24T07:34:48.180Z,923.69
2019-02-24T07:35:48.171Z,923.66
2019-02-24T07:36:48.055Z,923.59
2019-02-24T07:37:48.055Z,923.55
2019-02-24T07:38:48.182Z,923.50
2019-02-24T07:39:48.021Z,923.53
2019-02-24T07:40:48.010Z,923.50
2019-02-24T07:41:47.998Z,923.53
2019-02-24T07:42:47.987Z,923.49
2019-02-24T07:43:47.977Z,923.50
2019-02-24T07:44:47.965Z,923.47
2019-02-24T07:45:47.953Z,923.46
2019-02-24T07:46:47.942Z,923.48
2019-02-24T07:47:47.930Z,923.49
2019-02-24T07:48:47.922Z,923.49
2019-02-24T07:49:47.913Z,923.45
2019-02-24T07:50:47.899Z,923.47
2019-02-24T07:51:47.887Z,923.43
2019-02-24T07:52:47.876Z,923.48
2019-02-24T07:53:47.867Z,923.43
2019-02-24T07:54:47.852Z,923.42
2019-02-24T07:55:47.845Z,923.46
2019-02-24T07:56:47.837Z,923.41
2019-02-24T07:57:47.821Z,923.37
2019-02-24T07:58:47.811Z,923.37
2019-02-24T07:59:47.798Z,923.33
2019-02-24T08:00:47.786Z,923.34
2019-02-24T08:01:47.777Z,923.31
2019-02-24T08:02:47.765Z,923.31
2019-02-24T08:03:47.758Z,923.30
2019-02-24T08:04:47.743Z,923.28
2019-02-24T08:05:47.733Z,923.32
2019-02-24T08:06:47.720Z,923.25
2019-02-24T08:07:47.712Z,923.26
2019-02-24T08:08:47.704Z,923.20
2019-02-24T08:09:47.689Z,923.22
2019-02-24T08:10:47.683Z,923.25
2019-02-24T08:11:47.668Z,923.23
2019-02-24T08:12:47.656Z,923.24
2019-02-24T08:13:47.644Z,923.20
2019-02-24T08:14:47.634Z,923.23
2019-02-24T08:15:47.624Z,923.20
2019-02-24T08:16:47.614Z,923.17
2019-02-24T08:17:47.602Z,923.19
2019-02-24T08:18:49.906Z,923.14
2019-02-24T08:19:47.582Z,923.18
2019-02-24T08:20:47.585Z,923.10
2019-02-24T08:21:47.560Z,923.11
2019-02-24T08:22:47.546Z,923.09
2019-02-24T08:23:47.539Z,923.12
2019-02-24T08:24:47.528Z,923.09
2019-02-24T08:25:47.514Z,923.08
2019-02-24T08:26:47.507Z,923.06
2019-02-24T08:27:47.494Z,923.05
2019-02-24T08:28:47.484Z,923.00
2019-02-24T08:29:47.471Z,923.03
2019-02-24T08:30:47.468Z,923.00
2019-02-24T08:31:47.447Z,922.97
2019-02-24T08:32:47.439Z,922.96
2019-02-24T08:33:47.581Z,922.93
2019-02-24T08:34:47.416Z,922.91
2019-02-24T08:35:47.614Z,922.92
2019-02-24T08:36:47.397Z,922.92
2019-02-24T08:37:47.387Z,922.86
2019-02-24T08:38:47.372Z,922.88
2019-02-24T08:39:47.363Z,922.87
2019-02-24T08:40:47.354Z,922.85
2019-02-24T08:41:47.342Z,922.87
2019-02-24T08:42:47.333Z,922.87
2019-02-24T08:43:47.321Z,922.82
2019-02-24T08:44:47.362Z,922.84
2019-02-24T08:45:47.300Z,922.86
2019-02-24T08:46:47.290Z,922.80
2019-02-24T08:47:47.280Z,922.80
2019-02-24T08:48:47.267Z,922.74
2019-02-24T08:49:47.256Z,922.82
2019-02-24T08:50:47.245Z,922.81
2019-02-24T08:51:47.232Z,922.80
2019-02-24T08:52:47.226Z,922.80
2019-02-24T08:53:47.218Z,922.80
2019-02-24T08:54:47.204Z,922.83
2019-02-24T08:55:47.194Z,922.82
2019-02-24T08:56:47.186Z,922.83
2019-02-24T08:57:47.271Z,922.78
2019-02-24T08:58:47.164Z,922.76
2019-02-24T08:59:47.253Z,922.75
2019-02-24T09:00:50.896Z,922.73
2019-02-24T09:01:47.125Z,922.70
2019-02-24T09:02:47.118Z,922.76
2019-02-24T09:03:47.104Z,922.74
2019-02-24T09:04:47.094Z,922.68
2019-02-24T09:05:47.083Z,922.75
2019-02-24T09:06:47.086Z,922.67
2019-02-24T09:07:47.070Z,922.68
2019-02-24T09:08:47.055Z,922.68
2019-02-24T09:09:47.041Z,922.67
2019-02-24T09:10:47.034Z,922.69
2019-02-24T09:11:47.029Z,922.63
2019-02-24T09:12:47.019Z,922.62
2019-02-24T09:13:46.998Z,922.60
2019-02-24T09:14:46.989Z,922.56
2019-02-24T09:15:46.977Z,922.61
2019-02-24T09:16:46.963Z,922.57
2019-02-24T09:17:46.954Z,922.52
2019-02-24T09:18:46.954Z,922.56
2019-02-24T09:19:46.936Z,922.52
2019-02-24T09:20:46.923Z,922.57
2019-02-24T09:21:46.921Z,922.55
2019-02-24T09:22:46.900Z,922.55
2019-02-24T09:23:46.896Z,922.50
2019-02-24T09:24:46.886Z,922.54
2019-02-24T09:25:46.866Z,922.51
2019-02-24T09:26:46.861Z,922.50
2019-02-24T09:27:46.842Z,922.50
2019-02-24T09:28:46.832Z,922.48
2019-02-24T09:29:46.829Z,922.48
2019-02-24T09:30:46.815Z,922.45
2019-02-24T09:31:46.802Z,922.45
2019-02-24T09:32:46.792Z,922.49
2019-02-24T09:33:46.781Z,922.50
2019-02-24T09:34:46.929Z,922.48
2019-02-24T09:35:46.758Z,922.43
2019-02-24T09:36:46.752Z,922.46
2019-02-24T09:37:46.737Z,922.43
2019-02-24T09:38:46.722Z,922.44
2019-02-24T09:39:46.713Z,922.47
2019-02-24T09:40:46.699Z,922.44
2019-02-24T09:41:46.690Z,922.44
2019-02-24T09:42:46.685Z,922.40
2019-02-24T09:43:46.670Z,922.35
2019-02-24T09:44:46.656Z,922.43
2019-02-24T09:45:46.645Z,922.33
2019-02-24T09:46:46.644Z,922.40
2019-02-24T09:47:47.300Z,922.40
2019-02-24T09:48:46.611Z,922.38
2019-02-24T09:49:46.612Z,922.30
2019-02-24T09:50:46.597Z,922.36
2019-02-24T09:51:46.582Z,922.37
2019-02-24T09:52:46.576Z,922.40
2019-02-24T09:53:46.557Z,922.39
2019-02-24T09:54:46.548Z,922.37
2019-02-24T09:55:46.537Z,922.37
2019-02-24T09:56:46.522Z,922.40
2019-02-24T09:57:46.516Z,922.37
2019-02-24T09:58:46.509Z,922.38
2019-02-24T09:59:46.490Z,922.32
2019-02-24T10:00:46.482Z,922.33
2019-02-24T10:01:46.473Z,922.35
2019-02-24T10:02:46.470Z,922.34
2019-02-24T10:03:46.455Z,922.32
2019-02-24T10:04:46.442Z,922.29
2019-02-24T10:05:46.435Z,922.37
2019-02-24T10:06:46.418Z,922.32
2019-02-24T10:07:46.405Z,922.31
2019-02-24T10:08:46.394Z,922.34
2019-02-24T10:09:46.382Z,922.33
2019-02-24T10:10:46.376Z,922.33
2019-02-24T10:11:46.363Z,922.29
2019-02-24T10:12:46.359Z,922.29
2019-02-24T10:13:46.337Z,922.36
2019-02-24T10:14:46.331Z,922.33
2019-02-24T10:15:46.316Z,922.31
2019-02-24T10:16:46.308Z,922.32
2019-02-24T10:17:46.303Z,922.31
2019-02-24T10:18:46.289Z,922.28
2019-02-24T10:19:46.274Z,922.28
2019-02-24T10:20:46.265Z,922.31
2019-02-24T10:21:46.248Z,922.33
2019-02-24T10:22:46.237Z,922.28
2019-02-24T10:23:46.227Z,922.27
2019-02-24T10:24:46.319Z,922.33
2019-02-24T10:25:46.210Z,922.39
2019-02-24T10:26:46.199Z,922.36
2019-02-24T10:27:46.186Z,922.37
2019-02-24T10:28:47.678Z,922.41
2019-02-24T10:29:46.162Z,922.41
2019-02-24T10:30:46.157Z,922.37
2019-02-24T10:31:46.146Z,922.39
2019-02-24T10:32:46.132Z,922.32
2019-02-24T10:33:46.117Z,922.37
2019-02-24T10:34:46.108Z,922.35
2019-02-24T10:35:46.209Z,922.39
2019-02-24T10:36:46.090Z,922.38
2019-02-24T10:37:46.078Z,922.34
2019-02-24T10:38:46.067Z,922.42
2019-02-24T10:39:46.053Z,922.41
2019-02-24T10:40:46.040Z,922.41
2019-02-24T10:41:46.033Z,922.47
2019-02-24T10:42:46.032Z,922.44
2019-02-24T10:43:46.017Z,922.42
2019-02-24T10:44:46.010Z,922.44
2019-02-24T10:45:45.992Z,922.43
2019-02-24T10:46:45.980Z,922.44
2019-02-24T10:47:45.972Z,922.40
2019-02-24T10:48:45.955Z,922.38
2019-02-24T10:49:45.945Z,922.46
2019-02-24T10:50:45.933Z,922.44
2019-02-24T10:51:45.923Z,922.47
2019-02-24T10:52:45.915Z,922.48
2019-02-24T10:53:45.903Z,922.45
2019-02-24T10:54:45.895Z,922.50
2019-02-24T10:55:45.878Z,922.51
2019-02-24T10:56:45.871Z,922.48
2019-02-24T10:57:45.860Z,922.50
2019-02-24T10:58:45.847Z,922.52
2019-02-24T10:59:45.840Z,922.50
2019-02-24T11:00:45.836Z,922.51
2019-02-24T11:01:45.825Z,922.51
2019-02-24T11:02:45.824Z,922.52
2019-02-24T11:03:45.805Z,922.50
2019-02-24T11:04:45.788Z,922.51
2019-02-24T11:05:45.776Z,922.59
2019-02-24T11:06:45.767Z,922.54
2019-02-24T11:07:45.755Z,922.52
2019-02-24T11:08:45.744Z,922.56
2019-02-24T11:09:45.739Z,922.58
2019-02-24T11:10:45.723Z,922.59
2019-02-24T11:11:45.718Z,922.61
2019-02-24T11:12:45.703Z,922.57
2019-02-24T11:13:45.708Z,922.60
2019-02-24T11:14:45.680Z,922.58
2019-02-24T11:15:45.676Z,922.60
2019-02-24T11:16:45.663Z,922.60
2019-02-24T11:17:45.654Z,922.63
2019-02-24T11:18:45.638Z,922.64
2019-02-24T11:19:45.629Z,922.63
2019-02-24T11:20:45.619Z,922.66
2019-02-24T11:21:45.608Z,922.72
2019-02-24T11:22:45.600Z,922.72
2019-02-24T11:23:45.587Z,922.72
2019-02-24T11:24:45.577Z,922.70
2019-02-24T11:25:45.568Z,922.72
2019-02-24T11:26:45.555Z,922.71
2019-02-24T11:27:45.543Z,922.70
2019-02-24T11:28:45.534Z,922.71
2019-02-24T11:29:45.521Z,922.73
2019-02-24T11:30:45.510Z,922.74
2019-02-24T11:31:45.498Z,922.73
2019-02-24T11:32:45.492Z,922.69
2019-02-24T11:33:45.481Z,922.73
2019-02-24T11:34:45.464Z,922.75
2019-02-24T11:35:45.464Z,922.73
2019-02-24T11:36:45.847Z,922.69
2019-02-24T11:37:45.432Z,922.69
2019-02-24T11:38:45.422Z,922.74
2019-02-24T11:39:45.409Z,922.71
2019-02-24T11:40:45.400Z,922.77
2019-02-24T11:41:45.399Z,922.79
2019-02-24T11:42:45.381Z,922.75
2019-02-24T11:43:45.366Z,922.75
2019-02-24T11:44:45.363Z,922.73
2019-02-24T11:45:45.345Z,922.72
2019-02-24T11:46:45.339Z,922.75
2019-02-24T11:47:45.325Z,922.80
2019-02-24T11:48:45.318Z,922.74
2019-02-24T11:49:45.303Z,922.75
2019-02-24T11:50:45.296Z,922.79
2019-02-24T11:51:45.280Z,922.81
2019-02-24T11:52:45.266Z,922.82
2019-02-24T11:53:45.256Z,922.84
2019-02-24T11:54:45.247Z,922.80
2019-02-24T11:55:45.241Z,922.83
2019-02-24T11:56:45.224Z,922.78
2019-02-24T11:57:45.213Z,922.83
2019-02-24T11:58:45.202Z,922.82
2019-02-24T11:59:45.191Z,922.86
2019-02-24T12:00:45.184Z,922.82
2019-02-24T12:01:47.505Z,922.84
2019-02-24T12:02:45.168Z,922.89
2019-02-24T12:03:45.150Z,922.86
2019-02-24T12:04:45.140Z,922.86
2019-02-24T12:05:45.170Z,922.85
2019-02-24T12:06:45.115Z,922.88
2019-02-24T12:07:45.105Z,922.86
2019-02-24T12:08:45.092Z,922.89
2019-02-24T12:09:45.084Z,922.89
2019-02-24T12:10:45.073Z,922.87
2019-02-24T12:11:45.060Z,922.90
2019-02-24T12:12:45.059Z,922.89
2019-02-24T12:13:45.038Z,922.87
2019-02-24T12:14:45.026Z,922.89
2019-02-24T12:15:45.026Z,922.90
2019-02-24T12:16:45.011Z,922.89
2019-02-24T12:17:45.000Z,922.90
2019-02-24T12:18:44.987Z,922.90
2019-02-24T12:19:44.977Z,922.90
2019-02-24T12:20:44.966Z,922.92
2019-02-24T12:21:44.957Z,922.96
2019-02-24T12:22:44.945Z,922.94
2019-02-24T12:23:44.938Z,923.02
2019-02-24T12:24:44.925Z,922.95
2019-02-24T12:25:44.913Z,922.94
2019-02-24T12:26:44.900Z,922.95
2019-02-24T12:27:44.889Z,922.95
2019-02-24T12:28:44.878Z,922.94
2019-02-24T12:29:44.870Z,922.95
2019-02-24T12:30:44.857Z,922.96
2019-02-24T12:31:44.846Z,922.97
2019-02-24T12:32:44.837Z,922.93
2019-02-24T12:33:44.822Z,922.98
2019-02-24T12:34:44.813Z,922.99
2019-02-24T12:35:44.802Z,922.96
2019-02-24T12:36:44.790Z,922.95
2019-02-24T12:37:44.881Z,922.95
2019-02-24T12:38:44.769Z,922.99
2019-02-24T12:39:44.756Z,922.98
2019-02-24T12:40:44.751Z,922.94
2019-02-24T12:41:44.737Z,922.93
2019-02-24T12:42:44.724Z,922.98
2019-02-24T12:43:44.717Z,922.91
2019-02-24T12:44:44.704Z,922.91
2019-02-24T12:45:44.691Z,922.98
2019-02-24T12:46:44.683Z,923.01
2019-02-24T12:47:44.670Z,922.98
2019-02-24T12:48:44.664Z,923.02
2019-02-24T12:49:44.651Z,923.06
2019-02-24T12:50:44.638Z,923.05
2019-02-24T12:51:44.627Z,923.10
2019-02-24T12:52:44.616Z,923.05
2019-02-24T12:53:44.607Z,923.08
2019-02-24T12:54:44.593Z,923.10
2019-02-24T12:55:44.585Z,923.08
2019-02-24T12:56:44.571Z,923.10
2019-02-24T12:57:44.570Z,923.13
2019-02-24T12:58:44.550Z,923.08
2019-02-24T12:59:44.540Z,923.10
2019-02-24T13:00:44.531Z,923.09
2019-02-24T13:01:44.520Z,923.08
2019-02-24T13:02:44.517Z,923.07
2019-02-24T13:03:44.499Z,923.08
2019-02-24T13:04:44.490Z,923.14
2019-02-24T13:05:44.478Z,923.09
2019-02-24T13:06:44.465Z,923.13
2019-02-24T13:07:44.456Z,923.14
2019-02-24T13:08:44.443Z,923.18